sensor_id;sensor_type;location;lat;lon;timestamp;pressure;altitude;pressure_sealevel;temperature;humidity
54554;BME280;40450;55.848;-3.572;2023-06-22T00:02:28;99607.89;;;16.74;74.03
54554;BME280;40450;55.848;-3.572;2023-06-22T00:04:58;99614.60;;;16.48;74.05
54554;BME280;40450;55.848;-3.572;2023-06-22T00:07:28;99614.51;;;16.50;74.31
54554;BME280;40450;55.848;-3.572;2023-06-22T00:09:59;99612.64;;;16.87;72.55
54554;BME280;40450;55.848;-3.572;2023-06-22T00:12:29;99619.66;;;16.48;73.74
54554;BME280;40450;55.848;-3.572;2023-06-22T00:14:59;99623.43;;;16.12;74.76
54554;BME280;40450;55.848;-3.572;2023-06-22T00:17:30;99628.97;;;15.98;76.23
54554;BME280;40450;55.848;-3.572;2023-06-22T00:20:00;99633.58;;;15.79;77.44
54554;BME280;40450;55.848;-3.572;2023-06-22T00:22:30;99636.94;;;15.55;78.80
54554;BME280;40450;55.848;-3.572;2023-06-22T00:25:01;99638.76;;;15.50;79.55
54554;BME280;40450;55.848;-3.572;2023-06-22T00:27:31;99636.89;;;15.76;78.86
54554;BME280;40450;55.848;-3.572;2023-06-22T00:30:02;99640.71;;;15.42;79.88
54554;BME280;40450;55.848;-3.572;2023-06-22T00:32:32;99643.28;;;15.66;79.45
54554;BME280;40450;55.848;-3.572;2023-06-22T00:35:03;99641.43;;;15.63;79.95
54554;BME280;40450;55.848;-3.572;2023-06-22T00:37:32;99640.47;;;15.68;79.47
54554;BME280;40450;55.848;-3.572;2023-06-22T00:40:03;99640.71;;;15.46;80.55
54554;BME280;40450;55.848;-3.572;2023-06-22T00:42:33;99644.85;;;15.52;79.99
54554;BME280;40450;55.848;-3.572;2023-06-22T00:45:04;99648.68;;;15.53;80.45
54554;BME280;40450;55.848;-3.572;2023-06-22T00:47:34;99649.90;;;15.46;80.64
54554;BME280;40450;55.848;-3.572;2023-06-22T00:50:06;99650.26;;;15.71;79.84
54554;BME280;40450;55.848;-3.572;2023-06-22T00:52:35;99651.26;;;15.77;79.49
54554;BME280;40450;55.848;-3.572;2023-06-22T00:55:05;99655.83;;;15.74;78.91
54554;BME280;40450;55.848;-3.572;2023-06-22T00:57:35;99657.08;;;15.80;78.83
54554;BME280;40450;55.848;-3.572;2023-06-22T01:00:07;99657.67;;;15.43;79.60
54554;BME280;40450;55.848;-3.572;2023-06-22T01:02:36;99659.85;;;15.71;79.17
54554;BME280;40450;55.848;-3.572;2023-06-22T01:05:07;99665.20;;;15.27;79.96
54554;BME280;40450;55.848;-3.572;2023-06-22T01:07:42;99665.04;;;15.14;80.16
54554;BME280;40450;55.848;-3.572;2023-06-22T01:10:11;99661.27;;;15.49;79.67
54554;BME280;40450;55.848;-3.572;2023-06-22T01:12:40;99663.25;;;15.32;79.66
54554;BME280;40450;55.848;-3.572;2023-06-22T01:15:11;99662.27;;;15.73;78.29
54554;BME280;40450;55.848;-3.572;2023-06-22T01:17:40;99661.61;;;15.47;78.51
54554;BME280;40450;55.848;-3.572;2023-06-22T01:20:09;99664.62;;;15.66;77.77
54554;BME280;40450;55.848;-3.572;2023-06-22T01:22:48;99662.06;;;15.45;77.98
54554;BME280;40450;55.848;-3.572;2023-06-22T01:25:12;99663.55;;;15.82;76.33
54554;BME280;40450;55.848;-3.572;2023-06-22T01:27:47;99665.03;;;15.92;75.79
54554;BME280;40450;55.848;-3.572;2023-06-22T01:30:11;99670.06;;;16.30;75.16
54554;BME280;40450;55.848;-3.572;2023-06-22T01:32:41;99674.15;;;16.55;74.00
54554;BME280;40450;55.848;-3.572;2023-06-22T01:35:11;99674.60;;;16.95;73.19
54554;BME280;40450;55.848;-3.572;2023-06-22T01:37:41;99674.76;;;17.23;72.50
54554;BME280;40450;55.848;-3.572;2023-06-22T01:40:12;99675.58;;;17.16;70.54
54554;BME280;40450;55.848;-3.572;2023-06-22T01:42:43;99680.74;;;17.10;70.26
54554;BME280;40450;55.848;-3.572;2023-06-22T01:45:12;99681.63;;;17.06;70.61
54554;BME280;40450;55.848;-3.572;2023-06-22T01:47:42;99680.69;;;17.24;70.18
54554;BME280;40450;55.848;-3.572;2023-06-22T01:50:13;99682.74;;;17.54;69.17
54554;BME280;40450;55.848;-3.572;2023-06-22T01:52:43;99684.29;;;17.67;68.64
54554;BME280;40450;55.848;-3.572;2023-06-22T01:55:14;99687.10;;;17.69;68.95
54554;BME280;40450;55.848;-3.572;2023-06-22T01:57:44;99687.11;;;17.93;66.43
54554;BME280;40450;55.848;-3.572;2023-06-22T02:00:17;99693.12;;;17.99;67.08
54554;BME280;40450;55.848;-3.572;2023-06-22T02:02:49;99692.90;;;17.54;66.77
54554;BME280;40450;55.848;-3.572;2023-06-22T02:05:17;99694.95;;;17.73;66.71
54554;BME280;40450;55.848;-3.572;2023-06-22T02:07:52;99697.05;;;17.48;67.17
54554;BME280;40450;55.848;-3.572;2023-06-22T02:10:16;99696.34;;;17.43;67.09
54554;BME280;40450;55.848;-3.572;2023-06-22T02:12:46;99697.85;;;17.29;66.52
54554;BME280;40450;55.848;-3.572;2023-06-22T02:15:16;99704.02;;;16.37;70.35
54554;BME280;40450;55.848;-3.572;2023-06-22T02:17:48;99703.46;;;16.56;69.43
54554;BME280;40450;55.848;-3.572;2023-06-22T02:20:17;99705.40;;;16.65;69.06
54554;BME280;40450;55.848;-3.572;2023-06-22T02:22:47;99706.31;;;16.30;70.60
54554;BME280;40450;55.848;-3.572;2023-06-22T02:25:18;99710.31;;;16.35;70.33
54554;BME280;40450;55.848;-3.572;2023-06-22T02:27:48;99706.24;;;16.24;69.40
54554;BME280;40450;55.848;-3.572;2023-06-22T02:30:18;99704.36;;;16.20;70.68
54554;BME280;40450;55.848;-3.572;2023-06-22T02:32:49;99702.14;;;16.25;70.62
54554;BME280;40450;55.848;-3.572;2023-06-22T02:35:19;99704.98;;;16.36;70.34
54554;BME280;40450;55.848;-3.572;2023-06-22T02:37:49;99705.09;;;16.83;69.43
54554;BME280;40450;55.848;-3.572;2023-06-22T02:40:20;99706.05;;;17.09;68.43
54554;BME280;40450;55.848;-3.572;2023-06-22T02:42:50;99709.03;;;17.22;67.76
54554;BME280;40450;55.848;-3.572;2023-06-22T02:45:21;99713.13;;;17.28;67.01
54554;BME280;40450;55.848;-3.572;2023-06-22T02:47:51;99714.22;;;17.14;67.24
54554;BME280;40450;55.848;-3.572;2023-06-22T02:50:21;99715.05;;;17.23;67.19
54554;BME280;40450;55.848;-3.572;2023-06-22T02:52:52;99713.15;;;17.20;66.81
54554;BME280;40450;55.848;-3.572;2023-06-22T02:55:22;99713.72;;;16.99;67.48
54554;BME280;40450;55.848;-3.572;2023-06-22T02:57:53;99714.83;;;17.23;67.09
54554;BME280;40450;55.848;-3.572;2023-06-22T03:00:23;99720.90;;;17.22;66.92
54554;BME280;40450;55.848;-3.572;2023-06-22T03:02:53;99721.83;;;17.21;66.62
54554;BME280;40450;55.848;-3.572;2023-06-22T03:05:24;99724.30;;;16.96;67.20
54554;BME280;40450;55.848;-3.572;2023-06-22T03:07:54;99719.80;;;17.07;66.91
54554;BME280;40450;55.848;-3.572;2023-06-22T03:10:25;99719.48;;;16.95;66.90
54554;BME280;40450;55.848;-3.572;2023-06-22T03:12:55;99724.06;;;16.91;67.59
54554;BME280;40450;55.848;-3.572;2023-06-22T03:15:25;99727.90;;;16.88;67.39
54554;BME280;40450;55.848;-3.572;2023-06-22T03:17:56;99728.15;;;16.58;68.05
54554;BME280;40450;55.848;-3.572;2023-06-22T03:20:26;99730.70;;;16.73;68.50
54554;BME280;40450;55.848;-3.572;2023-06-22T03:22:56;99730.63;;;16.95;68.36
54554;BME280;40450;55.848;-3.572;2023-06-22T03:25:27;99731.55;;;17.13;68.30
54554;BME280;40450;55.848;-3.572;2023-06-22T03:27:57;99732.60;;;17.48;66.62
54554;BME280;40450;55.848;-3.572;2023-06-22T03:30:28;99729.76;;;17.74;66.79
54554;BME280;40450;55.848;-3.572;2023-06-22T03:32:58;99730.92;;;17.95;66.36
54554;BME280;40450;55.848;-3.572;2023-06-22T03:35:28;99728.05;;;17.96;65.62
54554;BME280;40450;55.848;-3.572;2023-06-22T03:37:59;99728.86;;;17.94;65.16
54554;BME280;40450;55.848;-3.572;2023-06-22T03:40:29;99734.74;;;17.69;65.34
54554;BME280;40450;55.848;-3.572;2023-06-22T03:42:59;99736.24;;;17.22;66.41
54554;BME280;40450;55.848;-3.572;2023-06-22T03:45:29;99736.67;;;17.43;65.58
54554;BME280;40450;55.848;-3.572;2023-06-22T03:48:00;99735.12;;;17.45;65.91
54554;BME280;40450;55.848;-3.572;2023-06-22T03:50:30;99737.46;;;17.30;66.21
54554;BME280;40450;55.848;-3.572;2023-06-22T03:53:00;99738.47;;;17.31;65.55
54554;BME280;40450;55.848;-3.572;2023-06-22T03:55:31;99738.53;;;17.35;65.91
54554;BME280;40450;55.848;-3.572;2023-06-22T03:58:01;99742.97;;;17.28;66.08
54554;BME280;40450;55.848;-3.572;2023-06-22T04:00:32;99747.60;;;17.50;65.70
54554;BME280;40450;55.848;-3.572;2023-06-22T04:03:02;99749.49;;;17.44;65.50
54554;BME280;40450;55.848;-3.572;2023-06-22T04:05:32;99749.47;;;17.45;65.46
54554;BME280;40450;55.848;-3.572;2023-06-22T04:08:03;99753.72;;;17.13;65.68
54554;BME280;40450;55.848;-3.572;2023-06-22T04:10:33;99755.17;;;17.40;65.73
54554;BME280;40450;55.848;-3.572;2023-06-22T04:13:03;99754.87;;;17.62;65.39
54554;BME280;40450;55.848;-3.572;2023-06-22T04:15:34;99758.94;;;17.58;65.27
54554;BME280;40450;55.848;-3.572;2023-06-22T04:18:04;99762.59;;;17.31;65.81
54554;BME280;40450;55.848;-3.572;2023-06-22T04:20:34;99761.17;;;17.44;65.44
54554;BME280;40450;55.848;-3.572;2023-06-22T04:23:05;99764.84;;;17.15;65.37
54554;BME280;40450;55.848;-3.572;2023-06-22T04:25:35;99766.15;;;16.78;67.76
54554;BME280;40450;55.848;-3.572;2023-06-22T04:28:06;99766.65;;;16.18;69.95
54554;BME280;40450;55.848;-3.572;2023-06-22T04:30:36;99770.90;;;15.85;71.32
54554;BME280;40450;55.848;-3.572;2023-06-22T04:33:06;99772.74;;;15.78;72.09
54554;BME280;40450;55.848;-3.572;2023-06-22T04:35:36;99776.25;;;15.34;73.70
54554;BME280;40450;55.848;-3.572;2023-06-22T04:38:07;99773.87;;;15.03;74.96
54554;BME280;40450;55.848;-3.572;2023-06-22T04:40:37;99772.19;;;14.83;75.77
54554;BME280;40450;55.848;-3.572;2023-06-22T04:43:07;99776.12;;;14.64;76.86
54554;BME280;40450;55.848;-3.572;2023-06-22T04:45:37;99776.13;;;14.67;76.92
54554;BME280;40450;55.848;-3.572;2023-06-22T04:48:08;99777.24;;;14.57;77.48
54554;BME280;40450;55.848;-3.572;2023-06-22T04:50:38;99778.98;;;14.77;77.09
54554;BME280;40450;55.848;-3.572;2023-06-22T04:53:08;99783.24;;;14.78;77.34
54554;BME280;40450;55.848;-3.572;2023-06-22T04:55:39;99789.49;;;14.79;77.40
54554;BME280;40450;55.848;-3.572;2023-06-22T04:58:09;99792.33;;;15.36;76.15
54554;BME280;40450;55.848;-3.572;2023-06-22T05:00:40;99793.04;;;15.13;76.44
54554;BME280;40450;55.848;-3.572;2023-06-22T05:03:10;99794.31;;;15.15;76.61
54554;BME280;40450;55.848;-3.572;2023-06-22T05:05:40;99795.55;;;14.90;77.59
54554;BME280;40450;55.848;-3.572;2023-06-22T05:08:12;99795.36;;;14.76;78.42
54554;BME280;40450;55.848;-3.572;2023-06-22T05:10:41;99795.70;;;14.71;78.92
54554;BME280;40450;55.848;-3.572;2023-06-22T05:13:11;99797.17;;;14.66;79.09
54554;BME280;40450;55.848;-3.572;2023-06-22T05:15:42;99799.43;;;14.68;79.49
54554;BME280;40450;55.848;-3.572;2023-06-22T05:18:12;99801.40;;;14.89;78.86
54554;BME280;40450;55.848;-3.572;2023-06-22T05:20:42;99801.87;;;14.15;81.69
54554;BME280;40450;55.848;-3.572;2023-06-22T05:23:13;99805.73;;;13.55;83.69
54554;BME280;40450;55.848;-3.572;2023-06-22T05:25:43;99808.93;;;13.11;85.27
54554;BME280;40450;55.848;-3.572;2023-06-22T05:28:14;99814.89;;;12.93;86.13
54554;BME280;40450;55.848;-3.572;2023-06-22T05:30:44;99818.49;;;12.75;86.91
54554;BME280;40450;55.848;-3.572;2023-06-22T05:33:14;99821.15;;;12.65;87.22
54554;BME280;40450;55.848;-3.572;2023-06-22T05:35:44;99822.29;;;12.71;87.32
54554;BME280;40450;55.848;-3.572;2023-06-22T05:38:15;99826.33;;;12.84;86.85
54554;BME280;40450;55.848;-3.572;2023-06-22T05:40:45;99825.14;;;12.57;87.16
54554;BME280;40450;55.848;-3.572;2023-06-22T05:43:15;99825.24;;;13.40;85.55
54554;BME280;40450;55.848;-3.572;2023-06-22T05:45:46;99819.59;;;14.41;83.80
54554;BME280;40450;55.848;-3.572;2023-06-22T05:48:16;99824.46;;;14.65;81.10
54554;BME280;40450;55.848;-3.572;2023-06-22T05:50:47;99823.23;;;14.61;80.60
54554;BME280;40450;55.848;-3.572;2023-06-22T05:53:17;99826.71;;;14.58;80.67
54554;BME280;40450;55.848;-3.572;2023-06-22T05:55:48;99823.25;;;14.37;81.12
54554;BME280;40450;55.848;-3.572;2023-06-22T05:58:18;99825.72;;;13.69;82.99
54554;BME280;40450;55.848;-3.572;2023-06-22T06:00:48;99831.09;;;13.51;84.25
54554;BME280;40450;55.848;-3.572;2023-06-22T06:03:18;99836.00;;;12.83;86.35
54554;BME280;40450;55.848;-3.572;2023-06-22T06:05:49;99834.34;;;13.09;85.60
54554;BME280;40450;55.848;-3.572;2023-06-22T06:08:20;99834.81;;;13.49;85.34
54554;BME280;40450;55.848;-3.572;2023-06-22T06:10:49;99835.11;;;13.88;84.07
54554;BME280;40450;55.848;-3.572;2023-06-22T06:13:20;99834.27;;;14.00;83.44
54554;BME280;40450;55.848;-3.572;2023-06-22T06:15:50;99837.84;;;13.63;84.33
54554;BME280;40450;55.848;-3.572;2023-06-22T06:18:20;99833.24;;;14.46;83.48
54554;BME280;40450;55.848;-3.572;2023-06-22T06:20:51;99834.83;;;14.04;83.64
54554;BME280;40450;55.848;-3.572;2023-06-22T06:23:21;99834.91;;;14.44;82.51
54554;BME280;40450;55.848;-3.572;2023-06-22T06:25:51;99835.66;;;14.33;82.91
54554;BME280;40450;55.848;-3.572;2023-06-22T06:28:22;99837.83;;;14.40;82.76
54554;BME280;40450;55.848;-3.572;2023-06-22T06:30:53;99833.89;;;14.83;81.72
54554;BME280;40450;55.848;-3.572;2023-06-22T06:33:23;99834.50;;;14.75;81.51
54554;BME280;40450;55.848;-3.572;2023-06-22T06:35:53;99839.02;;;14.36;82.90
54554;BME280;40450;55.848;-3.572;2023-06-22T06:38:23;99847.79;;;15.22;81.19
54554;BME280;40450;55.848;-3.572;2023-06-22T06:40:53;99848.62;;;15.03;81.19
54554;BME280;40450;55.848;-3.572;2023-06-22T06:43:23;99849.24;;;15.43;80.43
54554;BME280;40450;55.848;-3.572;2023-06-22T06:45:54;99848.06;;;16.08;79.54
54554;BME280;40450;55.848;-3.572;2023-06-22T06:48:24;99842.64;;;16.33;78.35
54554;BME280;40450;55.848;-3.572;2023-06-22T06:50:55;99836.64;;;16.76;76.66
54554;BME280;40450;55.848;-3.572;2023-06-22T06:53:25;99839.56;;;16.47;75.85
54554;BME280;40450;55.848;-3.572;2023-06-22T06:55:55;99841.56;;;16.38;74.41
54554;BME280;40450;55.848;-3.572;2023-06-22T06:58:26;99851.15;;;15.98;73.92
54554;BME280;40450;55.848;-3.572;2023-06-22T07:00:56;99851.83;;;14.87;77.28
54554;BME280;40450;55.848;-3.572;2023-06-22T07:03:26;99848.88;;;16.35;72.71
54554;BME280;40450;55.848;-3.572;2023-06-22T07:05:57;99849.91;;;16.28;74.01
54554;BME280;40450;55.848;-3.572;2023-06-22T07:08:27;99854.38;;;15.84;75.20
54554;BME280;40450;55.848;-3.572;2023-06-22T07:10:57;99854.18;;;15.08;78.49
54554;BME280;40450;55.848;-3.572;2023-06-22T07:13:28;99850.90;;;14.90;78.90
54554;BME280;40450;55.848;-3.572;2023-06-22T07:15:58;99855.95;;;14.94;79.88
54554;BME280;40450;55.848;-3.572;2023-06-22T07:18:28;99855.35;;;15.62;77.53
54554;BME280;40450;55.848;-3.572;2023-06-22T07:20:59;99849.33;;;16.78;73.24
54554;BME280;40450;55.848;-3.572;2023-06-22T07:23:29;99848.49;;;17.14;72.10
54554;BME280;40450;55.848;-3.572;2023-06-22T07:25:59;99850.62;;;17.21;69.57
54554;BME280;40450;55.848;-3.572;2023-06-22T07:28:30;99859.95;;;13.41;82.86
54554;BME280;40450;55.848;-3.572;2023-06-22T07:31:00;99859.99;;;13.38;83.13
54554;BME280;40450;55.848;-3.572;2023-06-22T07:33:30;99860.44;;;15.08;80.32
54554;BME280;40450;55.848;-3.572;2023-06-22T07:36:01;99865.52;;;12.57;86.75
54554;BME280;40450;55.848;-3.572;2023-06-22T07:38:31;99864.13;;;12.89;86.44
54554;BME280;40450;55.848;-3.572;2023-06-22T07:41:02;99862.47;;;15.20;79.70
54554;BME280;40450;55.848;-3.572;2023-06-22T07:43:32;99867.43;;;13.26;84.86
54554;BME280;40450;55.848;-3.572;2023-06-22T07:46:02;99860.68;;;15.44;76.70
54554;BME280;40450;55.848;-3.572;2023-06-22T07:48:32;99871.45;;;15.18;77.05
54554;BME280;40450;55.848;-3.572;2023-06-22T07:51:03;99871.87;;;13.73;81.68
54554;BME280;40450;55.848;-3.572;2023-06-22T07:53:33;99867.83;;;16.09;75.96
54554;BME280;40450;55.848;-3.572;2023-06-22T07:56:04;99871.89;;;13.40;80.61
54554;BME280;40450;55.848;-3.572;2023-06-22T07:58:34;99866.45;;;14.22;77.37
54554;BME280;40450;55.848;-3.572;2023-06-22T08:01:05;99870.79;;;12.35;82.18
54554;BME280;40450;55.848;-3.572;2023-06-22T08:03:35;99869.30;;;12.18;84.54
54554;BME280;40450;55.848;-3.572;2023-06-22T08:06:06;99868.92;;;14.04;80.15
54554;BME280;40450;55.848;-3.572;2023-06-22T08:08:36;99870.83;;;14.07;78.82
54554;BME280;40450;55.848;-3.572;2023-06-22T08:11:06;99871.60;;;15.35;74.21
54554;BME280;40450;55.848;-3.572;2023-06-22T08:13:37;99874.25;;;15.51;72.28
54554;BME280;40450;55.848;-3.572;2023-06-22T08:16:07;99877.05;;;12.78;79.91
54554;BME280;40450;55.848;-3.572;2023-06-22T08:18:37;99874.01;;;13.25;79.04
54554;BME280;40450;55.848;-3.572;2023-06-22T08:21:08;99867.27;;;14.79;75.10
54554;BME280;40450;55.848;-3.572;2023-06-22T08:23:38;99871.13;;;16.02;70.91
54554;BME280;40450;55.848;-3.572;2023-06-22T08:26:08;99875.78;;;14.13;75.58
54554;BME280;40450;55.848;-3.572;2023-06-22T08:28:38;99882.71;;;13.38;77.88
54554;BME280;40450;55.848;-3.572;2023-06-22T08:31:09;99880.57;;;15.67;69.74
54554;BME280;40450;55.848;-3.572;2023-06-22T08:33:39;99882.18;;;15.67;69.20
54554;BME280;40450;55.848;-3.572;2023-06-22T08:36:10;99883.76;;;15.34;69.37
54554;BME280;40450;55.848;-3.572;2023-06-22T08:38:40;99889.01;;;13.68;75.27
54554;BME280;40450;55.848;-3.572;2023-06-22T08:41:10;99884.17;;;14.97;72.77
54554;BME280;40450;55.848;-3.572;2023-06-22T08:43:41;99885.96;;;13.53;75.24
54554;BME280;40450;55.848;-3.572;2023-06-22T08:46:11;99886.81;;;14.72;74.35
54554;BME280;40450;55.848;-3.572;2023-06-22T08:48:41;99886.78;;;14.07;74.70
54554;BME280;40450;55.848;-3.572;2023-06-22T08:51:11;99887.82;;;13.26;77.79
54554;BME280;40450;55.848;-3.572;2023-06-22T08:53:42;99883.31;;;12.54;78.50
54554;BME280;40450;55.848;-3.572;2023-06-22T08:56:12;99884.66;;;12.95;78.52
54554;BME280;40450;55.848;-3.572;2023-06-22T08:58:42;99883.88;;;13.56;78.57
54554;BME280;40450;55.848;-3.572;2023-06-22T09:01:15;99883.39;;;14.96;73.27
54554;BME280;40450;55.848;-3.572;2023-06-22T09:03:43;99885.13;;;15.29;72.80
54554;BME280;40450;55.848;-3.572;2023-06-22T09:06:13;99887.24;;;12.69;78.72
54554;BME280;40450;55.848;-3.572;2023-06-22T09:08:44;99883.93;;;12.95;77.49
54554;BME280;40450;55.848;-3.572;2023-06-22T09:11:14;99882.38;;;12.89;79.36
54554;BME280;40450;55.848;-3.572;2023-06-22T09:13:44;99884.75;;;13.34;78.92
54554;BME280;40450;55.848;-3.572;2023-06-22T09:16:15;99889.35;;;13.45;74.13
54554;BME280;40450;55.848;-3.572;2023-06-22T09:18:47;99887.96;;;14.61;69.71
54554;BME280;40450;55.848;-3.572;2023-06-22T09:21:15;99887.69;;;15.46;65.62
54554;BME280;40450;55.848;-3.572;2023-06-22T09:23:46;99882.88;;;16.62;64.20
54554;BME280;40450;55.848;-3.572;2023-06-22T09:26:16;99884.78;;;14.75;69.96
54554;BME280;40450;55.848;-3.572;2023-06-22T09:28:46;99890.40;;;14.45;70.75
54554;BME280;40450;55.848;-3.572;2023-06-22T09:31:16;99893.46;;;13.90;74.49
54554;BME280;40450;55.848;-3.572;2023-06-22T09:33:47;99894.30;;;12.60;78.12
54554;BME280;40450;55.848;-3.572;2023-06-22T09:36:17;99896.88;;;12.95;76.92
54554;BME280;40450;55.848;-3.572;2023-06-22T09:38:48;99899.21;;;13.72;74.43
54554;BME280;40450;55.848;-3.572;2023-06-22T09:41:18;99897.15;;;13.87;74.25
54554;BME280;40450;55.848;-3.572;2023-06-22T09:43:48;99896.86;;;13.75;74.81
54554;BME280;40450;55.848;-3.572;2023-06-22T09:46:18;99896.51;;;14.25;71.50
54554;BME280;40450;55.848;-3.572;2023-06-22T09:48:49;99904.58;;;13.78;75.16
54554;BME280;40450;55.848;-3.572;2023-06-22T09:51:19;99908.42;;;15.02;72.76
54554;BME280;40450;55.848;-3.572;2023-06-22T09:53:50;99904.18;;;14.93;72.10
54554;BME280;40450;55.848;-3.572;2023-06-22T09:56:20;99902.99;;;16.22;68.10
54554;BME280;40450;55.848;-3.572;2023-06-22T09:58:50;99901.09;;;14.29;72.11
54554;BME280;40450;55.848;-3.572;2023-06-22T10:01:20;99893.47;;;16.62;66.39
54554;BME280;40450;55.848;-3.572;2023-06-22T10:03:53;99891.88;;;17.68;63.49
54554;BME280;40450;55.848;-3.572;2023-06-22T10:06:21;99905.95;;;15.79;67.30
54554;BME280;40450;55.848;-3.572;2023-06-22T10:08:52;99906.00;;;14.24;71.18
54554;BME280;40450;55.848;-3.572;2023-06-22T10:11:22;99908.16;;;13.74;73.11
54554;BME280;40450;55.848;-3.572;2023-06-22T10:13:52;99905.61;;;13.31;72.94
54554;BME280;40450;55.848;-3.572;2023-06-22T10:16:25;99903.11;;;14.59;72.00
54554;BME280;40450;55.848;-3.572;2023-06-22T10:18:53;99903.74;;;14.52;69.73
54554;BME280;40450;55.848;-3.572;2023-06-22T10:21:23;99903.75;;;15.13;68.35
54554;BME280;40450;55.848;-3.572;2023-06-22T10:23:58;99900.94;;;14.60;70.22
54554;BME280;40450;55.848;-3.572;2023-06-22T10:26:24;99900.62;;;14.34;71.12
54554;BME280;40450;55.848;-3.572;2023-06-22T10:28:54;99896.56;;;17.38;64.90
54554;BME280;40450;55.848;-3.572;2023-06-22T10:31:24;99898.39;;;17.42;62.87
54554;BME280;40450;55.848;-3.572;2023-06-22T10:33:55;99902.06;;;13.11;71.67
54554;BME280;40450;55.848;-3.572;2023-06-22T10:36:25;99907.50;;;15.65;66.04
54554;BME280;40450;55.848;-3.572;2023-06-22T10:38:55;99899.59;;;17.54;62.75
54554;BME280;40450;55.848;-3.572;2023-06-22T10:41:25;99898.28;;;16.95;61.37
54554;BME280;40450;55.848;-3.572;2023-06-22T10:43:56;99897.10;;;16.93;60.37
54554;BME280;40450;55.848;-3.572;2023-06-22T10:46:26;99902.66;;;15.17;66.36
54554;BME280;40450;55.848;-3.572;2023-06-22T10:48:56;99903.36;;;15.87;64.90
54554;BME280;40450;55.848;-3.572;2023-06-22T10:51:26;99905.71;;;14.24;69.62
54554;BME280;40450;55.848;-3.572;2023-06-22T10:53:57;99899.28;;;14.48;71.11
54554;BME280;40450;55.848;-3.572;2023-06-22T10:56:27;99891.84;;;15.99;67.14
54554;BME280;40450;55.848;-3.572;2023-06-22T10:58:57;99897.33;;;15.37;67.15
54554;BME280;40450;55.848;-3.572;2023-06-22T11:01:28;99887.19;;;16.48;64.57
54554;BME280;40450;55.848;-3.572;2023-06-22T11:03:58;99884.38;;;17.55;61.23
54554;BME280;40450;55.848;-3.572;2023-06-22T11:06:28;99891.89;;;16.28;65.58
54554;BME280;40450;55.848;-3.572;2023-06-22T11:08:59;99886.15;;;17.62;57.52
54554;BME280;40450;55.848;-3.572;2023-06-22T11:11:29;99885.67;;;17.53;59.77
54554;BME280;40450;55.848;-3.572;2023-06-22T11:13:59;99883.45;;;18.18;60.16
54554;BME280;40450;55.848;-3.572;2023-06-22T11:16:30;99884.42;;;17.84;59.61
54554;BME280;40450;55.848;-3.572;2023-06-22T11:19:00;99889.20;;;18.47;56.87
54554;BME280;40450;55.848;-3.572;2023-06-22T11:21:30;99901.04;;;15.66;65.04
54554;BME280;40450;55.848;-3.572;2023-06-22T11:24:01;99902.81;;;14.39;69.50
54554;BME280;40450;55.848;-3.572;2023-06-22T11:26:31;99898.08;;;14.92;69.19
54554;BME280;40450;55.848;-3.572;2023-06-22T11:29:01;99897.58;;;14.98;69.69
54554;BME280;40450;55.848;-3.572;2023-06-22T11:31:32;99893.77;;;16.01;65.51
54554;BME280;40450;55.848;-3.572;2023-06-22T11:34:02;99890.87;;;14.77;68.61
54554;BME280;40450;55.848;-3.572;2023-06-22T11:36:32;99892.95;;;16.64;66.69
54554;BME280;40450;55.848;-3.572;2023-06-22T11:39:03;99886.10;;;18.37;61.02
54554;BME280;40450;55.848;-3.572;2023-06-22T11:41:33;99888.14;;;19.27;57.20
54554;BME280;40450;55.848;-3.572;2023-06-22T11:44:04;99894.20;;;19.94;56.73
54554;BME280;40450;55.848;-3.572;2023-06-22T11:46:34;99891.87;;;18.83;57.90
54554;BME280;40450;55.848;-3.572;2023-06-22T11:49:04;99894.14;;;19.66;56.13
54554;BME280;40450;55.848;-3.572;2023-06-22T11:51:34;99893.36;;;19.46;56.42
54554;BME280;40450;55.848;-3.572;2023-06-22T11:54:05;99893.53;;;17.29;60.98
54554;BME280;40450;55.848;-3.572;2023-06-22T11:56:35;99892.63;;;18.28;60.31
54554;BME280;40450;55.848;-3.572;2023-06-22T11:59:05;99895.01;;;19.57;56.42
54554;BME280;40450;55.848;-3.572;2023-06-22T12:01:36;99892.36;;;20.85;52.48
54554;BME280;40450;55.848;-3.572;2023-06-22T12:04:06;99894.14;;;21.07;50.49
54554;BME280;40450;55.848;-3.572;2023-06-22T12:06:38;99895.49;;;20.96;48.28
54554;BME280;40450;55.848;-3.572;2023-06-22T12:09:07;99904.37;;;20.52;49.11
54554;BME280;40450;55.848;-3.572;2023-06-22T12:11:37;99902.08;;;20.22;49.20
54554;BME280;40450;55.848;-3.572;2023-06-22T12:14:08;99902.22;;;17.90;56.38
54554;BME280;40450;55.848;-3.572;2023-06-22T12:16:38;99899.08;;;17.46;59.33
54554;BME280;40450;55.848;-3.572;2023-06-22T12:19:08;99890.38;;;17.25;59.08
54554;BME280;40450;55.848;-3.572;2023-06-22T12:21:39;99890.53;;;18.96;56.00
54554;BME280;40450;55.848;-3.572;2023-06-22T12:24:09;99897.42;;;19.01;54.21
54554;BME280;40450;55.848;-3.572;2023-06-22T12:26:39;99894.79;;;18.15;57.50
54554;BME280;40450;55.848;-3.572;2023-06-22T12:29:10;99897.47;;;17.59;60.13
54554;BME280;40450;55.848;-3.572;2023-06-22T12:31:40;99896.57;;;19.18;56.52
54554;BME280;40450;55.848;-3.572;2023-06-22T12:34:10;99892.95;;;18.92;57.54
54554;BME280;40450;55.848;-3.572;2023-06-22T12:36:41;99899.06;;;19.63;54.61
54554;BME280;40450;55.848;-3.572;2023-06-22T12:39:11;99895.02;;;20.08;51.09
54554;BME280;40450;55.848;-3.572;2023-06-22T12:41:41;99884.76;;;20.67;52.41
54554;BME280;40450;55.848;-3.572;2023-06-22T12:44:12;99886.74;;;21.34;49.42
54554;BME280;40450;55.848;-3.572;2023-06-22T12:46:42;99883.89;;;21.51;47.63
54554;BME280;40450;55.848;-3.572;2023-06-22T12:49:12;99887.05;;;18.45;53.23
54554;BME280;40450;55.848;-3.572;2023-06-22T12:51:44;99882.87;;;20.65;49.92
54554;BME280;40450;55.848;-3.572;2023-06-22T12:54:13;99889.26;;;19.66;51.47
54554;BME280;40450;55.848;-3.572;2023-06-22T12:56:43;99888.05;;;18.98;53.44
54554;BME280;40450;55.848;-3.572;2023-06-22T12:59:14;99889.24;;;19.97;53.46
54554;BME280;40450;55.848;-3.572;2023-06-22T13:01:44;99884.12;;;21.64;48.95
54554;BME280;40450;55.848;-3.572;2023-06-22T13:04:15;99890.58;;;20.30;51.13
54554;BME280;40450;55.848;-3.572;2023-06-22T13:06:45;99885.31;;;21.12;46.67